createdAt,value
2022-11-30T00:00:38.636Z,100.00
2022-11-30T00:01:39.988Z,100.00
2022-11-30T00:02:41.471Z,100.00
2022-11-30T00:03:43.123Z,100.00
2022-11-30T00:04:44.763Z,100.00
2022-11-30T00:05:46.431Z,100.00
2022-11-30T00:06:47.801Z,100.00
2022-11-30T00:07:49.353Z,100.00
2022-11-30T00:08:54.645Z,100.00
2022-11-30T00:09:55.995Z,100.00
2022-11-30T00:10:57.331Z,100.00
2022-11-30T00:11:58.663Z,100.00
2022-11-30T00:12:59.992Z,100.00
2022-11-30T00:14:01.405Z,100.00
2022-11-30T00:15:02.854Z,100.00
2022-11-30T00:16:04.507Z,100.00
2022-11-30T00:17:05.949Z,100.00
2022-11-30T00:18:07.309Z,100.00
2022-11-30T00:19:08.592Z,100.00
2022-11-30T00:20:10.782Z,100.00
2022-11-30T00:21:12.932Z,100.00
2022-11-30T00:22:14.346Z,100.00
2022-11-30T00:23:15.682Z,100.00
2022-11-30T00:24:17.815Z,100.00
2022-11-30T00:25:19.484Z,100.00
2022-11-30T00:26:20.844Z,100.00
2022-11-30T00:27:22.174Z,100.00
2022-11-30T00:28:23.519Z,100.00
2022-11-30T00:29:24.877Z,100.00
2022-11-30T00:30:26.246Z,100.00
2022-11-30T00:31:27.663Z,100.00
2022-11-30T00:32:29.821Z,100.00
2022-11-30T00:33:35.116Z,100.00
2022-11-30T00:34:36.450Z,100.00
2022-11-30T00:35:37.729Z,100.00
2022-11-30T00:36:39.074Z,100.00
2022-11-30T00:37:40.399Z,100.00
2022-11-30T00:38:41.956Z,100.00
2022-11-30T00:39:43.323Z,100.00
2022-11-30T00:40:44.616Z,100.00
2022-11-30T00:41:45.930Z,100.00
2022-11-30T00:42:47.230Z,100.00
2022-11-30T00:43:48.533Z,100.00
2022-11-30T00:44:49.895Z,100.00
2022-11-30T00:45:51.315Z,100.00
2022-11-30T00:46:52.690Z,100.00
2022-11-30T00:47:53.986Z,100.00
2022-11-30T00:48:55.423Z,100.00
2022-11-30T00:49:56.943Z,100.00
2022-11-30T00:50:58.283Z,100.00
2022-11-30T00:52:00.162Z,100.00
2022-11-30T00:53:01.532Z,100.00
2022-11-30T00:54:02.939Z,100.00
2022-11-30T00:55:04.651Z,100.00
2022-11-30T00:56:06.407Z,100.00
2022-11-30T00:57:07.897Z,100.00
2022-11-30T00:58:09.545Z,100.00
2022-11-30T00:59:10.943Z,100.00
2022-11-30T01:00:12.449Z,100.00
2022-11-30T01:01:13.866Z,100.00
2022-11-30T01:02:15.456Z,100.00
2022-11-30T01:03:16.920Z,100.00
2022-11-30T01:04:18.313Z,100.00
2022-11-30T01:05:19.658Z,100.00
2022-11-30T01:06:20.980Z,100.00
2022-11-30T01:07:22.420Z,100.00
2022-11-30T01:08:23.746Z,100.00
2022-11-30T01:09:25.071Z,100.00
2022-11-30T01:10:26.508Z,100.00
2022-11-30T01:11:28.891Z,100.00
2022-11-30T01:12:30.229Z,100.00
2022-11-30T01:13:31.593Z,100.00
2022-11-30T01:14:32.956Z,100.00
2022-11-30T01:15:38.436Z,100.00
2022-11-30T01:16:39.792Z,100.00
2022-11-30T01:17:41.151Z,100.00
2022-11-30T01:18:43.352Z,100.00
2022-11-30T01:19:44.629Z,100.00
2022-11-30T01:20:45.951Z,100.00
2022-11-30T01:21:47.838Z,100.00
2022-11-30T01:22:49.189Z,100.00
2022-11-30T01:23:50.915Z,100.00
2022-11-30T01:24:52.344Z,100.00
2022-11-30T01:25:54.832Z,100.00
2022-11-30T01:26:56.192Z,100.00
2022-11-30T01:27:57.506Z,100.00
2022-11-30T01:28:58.813Z,100.00
2022-11-30T01:30:00.131Z,100.00
2022-11-30T01:31:02.630Z,100.00
2022-11-30T01:32:04.176Z,100.00
2022-11-30T01:33:05.490Z,100.00
2022-11-30T01:34:06.831Z,100.00
2022-11-30T01:35:08.280Z,100.00
2022-11-30T01:36:14.631Z,100.00
2022-11-30T01:37:16.115Z,100.00
2022-11-30T01:38:17.455Z,100.00
2022-11-30T01:39:18.764Z,100.00
2022-11-30T01:40:20.054Z,100.00
2022-11-30T01:41:25.095Z,100.00
2022-11-30T01:42:26.658Z,100.00
2022-11-30T01:43:37.115Z,100.00
2022-11-30T01:44:47.981Z,100.00
2022-11-30T01:45:49.645Z,100.00
2022-11-30T01:46:54.928Z,100.00
2022-11-30T01:47:56.965Z,100.00
2022-11-30T01:49:00.480Z,100.00
2022-11-30T01:50:33.929Z,100.00
2022-11-30T01:51:41.184Z,100.00
2022-11-30T01:52:48.336Z,100.00
2022-11-30T01:53:49.683Z,100.00
2022-11-30T01:54:56.180Z,100.00
2022-11-30T01:55:57.547Z,100.00
2022-11-30T01:57:11.535Z,100.00
2022-11-30T01:58:18.375Z,100.00
2022-11-30T01:59:21.540Z,100.00
2022-11-30T02:00:23.243Z,100.00
2022-11-30T02:01:25.060Z,100.00
2022-11-30T02:02:37.745Z,100.00
2022-11-30T02:03:41.873Z,100.00
2022-11-30T02:04:43.174Z,100.00
2022-11-30T02:05:44.947Z,100.00
2022-11-30T02:06:47.332Z,100.00
2022-11-30T02:07:48.857Z,100.00
2022-11-30T02:08:50.646Z,100.00
2022-11-30T02:09:51.980Z,100.00
2022-11-30T02:10:58.827Z,100.00
2022-11-30T02:12:01.235Z,100.00
2022-11-30T02:13:02.571Z,100.00
2022-11-30T02:14:16.249Z,100.00
2022-11-30T02:15:21.376Z,100.00
2022-11-30T02:16:28.591Z,100.00
2022-11-30T02:17:46.941Z,100.00
2022-11-30T02:19:06.938Z,100.00
2022-11-30T02:20:25.560Z,100.00
2022-11-30T02:21:35.736Z,100.00
2022-11-30T02:22:57.398Z,100.00
2022-11-30T02:24:13.583Z,100.00
2022-11-30T02:25:21.067Z,100.00
2022-11-30T02:26:31.413Z,100.00
2022-11-30T02:27:45.122Z,100.00
2022-11-30T02:28:55.389Z,100.00
2022-11-30T02:30:01.700Z,100.00
2022-11-30T02:31:05.960Z,100.00
2022-11-30T02:32:09.963Z,100.00
2022-11-30T02:33:14.524Z,100.00
2022-11-30T02:34:17.357Z,100.00
2022-11-30T02:35:20.212Z,100.00
2022-11-30T02:36:22.393Z,100.00
2022-11-30T02:37:25.250Z,100.00
2022-11-30T02:38:27.299Z,100.00
2022-11-30T02:39:28.611Z,100.00
2022-11-30T02:40:29.954Z,100.00
2022-11-30T02:41:38.395Z,100.00
2022-11-30T02:42:39.803Z,100.00
2022-11-30T02:43:41.368Z,100.00
2022-11-30T02:44:49.067Z,100.00
2022-11-30T02:45:57.117Z,100.00
2022-11-30T02:46:58.406Z,100.00
2022-11-30T02:48:07.670Z,100.00
2022-11-30T02:49:13.734Z,100.00
2022-11-30T02:50:17.191Z,100.00
2022-11-30T02:51:20.303Z,100.00
2022-11-30T02:52:24.254Z,100.00
2022-11-30T02:53:25.682Z,100.00
2022-11-30T02:54:26.983Z,100.00
2022-11-30T02:55:28.510Z,100.00
2022-11-30T02:56:30.586Z,100.00
2022-11-30T02:57:32.165Z,100.00
2022-11-30T02:58:33.515Z,100.00
2022-11-30T02:59:35.231Z,100.00
2022-11-30T03:00:36.624Z,100.00
2022-11-30T03:01:38.328Z,100.00
2022-11-30T03:02:40.146Z,100.00
2022-11-30T03:03:41.558Z,100.00
2022-11-30T03:04:42.901Z,100.00
2022-11-30T03:05:44.265Z,100.00
2022-11-30T03:06:45.606Z,100.00
2022-11-30T03:07:47.012Z,100.00
2022-11-30T03:08:48.414Z,100.00
2022-11-30T03:09:49.758Z,100.00
2022-11-30T03:10:51.106Z,100.00
2022-11-30T03:11:52.430Z,100.00
2022-11-30T03:12:57.126Z,100.00
2022-11-30T03:13:58.486Z,100.00
2022-11-30T03:14:59.904Z,100.00
2022-11-30T03:16:08.361Z,100.00
2022-11-30T03:17:09.740Z,100.00
2022-11-30T03:18:11.103Z,100.00
2022-11-30T03:19:12.421Z,100.00
2022-11-30T03:20:13.756Z,100.00
2022-11-30T03:21:15.102Z,100.00
2022-11-30T03:22:16.413Z,100.00
2022-11-30T03:23:17.738Z,100.00
2022-11-30T03:24:19.074Z,100.00
2022-11-30T03:25:20.435Z,100.00
2022-11-30T03:26:21.741Z,100.00
2022-11-30T03:27:23.099Z,100.00
2022-11-30T03:28:24.658Z,100.00
2022-11-30T03:29:25.978Z,100.00
2022-11-30T03:30:27.538Z,100.00
2022-11-30T03:31:29.223Z,100.00
2022-11-30T03:32:30.605Z,100.00
2022-11-30T03:33:32.000Z,100.00
2022-11-30T03:34:33.455Z,100.00
2022-11-30T03:35:34.806Z,100.00
2022-11-30T03:36:36.295Z,100.00
2022-11-30T03:37:37.611Z,100.00
2022-11-30T03:38:38.943Z,100.00
2022-11-30T03:39:40.234Z,100.00
2022-11-30T03:40:41.585Z,100.00
2022-11-30T03:41:42.917Z,100.00
2022-11-30T03:42:44.262Z,100.00
2022-11-30T03:43:46.353Z,100.00
2022-11-30T03:44:48.006Z,100.00
2022-11-30T03:45:49.587Z,100.00
2022-11-30T03:46:50.987Z,100.00
2022-11-30T03:47:52.417Z,100.00
2022-11-30T03:48:54.065Z,100.00
2022-11-30T03:49:55.411Z,100.00
2022-11-30T03:50:56.886Z,100.00
2022-11-30T03:51:58.186Z,100.00
2022-11-30T03:52:59.482Z,100.00
2022-11-30T03:54:00.901Z,100.00
2022-11-30T03:55:02.190Z,100.00
2022-11-30T03:56:05.357Z,100.00
2022-11-30T03:57:06.789Z,100.00
2022-11-30T03:58:08.135Z,100.00
2022-11-30T03:59:09.456Z,100.00
2022-11-30T04:00:11.198Z,100.00
2022-11-30T04:01:16.194Z,100.00
2022-11-30T04:02:17.745Z,100.00
2022-11-30T04:03:19.142Z,100.00
2022-11-30T04:04:20.469Z,100.00
2022-11-30T04:05:21.802Z,100.00
2022-11-30T04:06:23.388Z,100.00
2022-11-30T04:07:24.714Z,100.00
2022-11-30T04:08:26.475Z,100.00
2022-11-30T04:09:27.855Z,100.00
2022-11-30T04:10:29.198Z,100.00
2022-11-30T04:11:30.576Z,100.00
2022-11-30T04:12:31.893Z,100.00
2022-11-30T04:13:34.061Z,100.00
2022-11-30T04:14:35.397Z,100.00
2022-11-30T04:15:36.713Z,100.00
2022-11-30T04:16:38.041Z,100.00
2022-11-30T04:17:39.362Z,100.00
2022-11-30T04:18:40.806Z,100.00
2022-11-30T04:19:42.179Z,100.00
2022-11-30T04:20:43.695Z,100.00
2022-11-30T04:21:45.044Z,100.00
2022-11-30T04:22:46.361Z,100.00
2022-11-30T04:23:47.690Z,100.00
2022-11-30T04:24:49.278Z,100.00
2022-11-30T04:25:51.244Z,100.00
2022-11-30T04:26:52.598Z,100.00
2022-11-30T04:27:53.994Z,100.00
2022-11-30T04:28:55.302Z,100.00
2022-11-30T04:29:56.630Z,100.00
2022-11-30T04:30:58.595Z,100.00
2022-11-30T04:31:59.947Z,100.00
2022-11-30T04:33:01.352Z,100.00
2022-11-30T04:34:02.705Z,100.00
2022-11-30T04:35:04.151Z,100.00
2022-11-30T04:36:06.377Z,100.00
2022-11-30T04:37:07.795Z,100.00
2022-11-30T04:38:09.161Z,100.00
2022-11-30T04:39:10.492Z,100.00
2022-11-30T04:40:12.000Z,100.00
2022-11-30T04:41:13.382Z,100.00
2022-11-30T04:42:14.752Z,100.00
2022-11-30T04:43:16.074Z,100.00
2022-11-30T04:44:17.423Z,100.00
2022-11-30T04:45:18.807Z,100.00
2022-11-30T04:46:20.276Z,100.00
2022-11-30T04:47:21.750Z,100.00
2022-11-30T04:48:23.057Z,100.00
2022-11-30T04:49:24.337Z,100.00
2022-11-30T04:50:25.695Z,100.00
2022-11-30T04:51:27.049Z,100.00
2022-11-30T04:52:28.406Z,100.00
2022-11-30T04:53:29.747Z,100.00
2022-11-30T04:54:31.110Z,100.00
2022-11-30T04:55:32.516Z,100.00
2022-11-30T04:56:33.846Z,100.00
2022-11-30T04:57:35.240Z,100.00
2022-11-30T04:58:36.819Z,100.00
2022-11-30T04:59:38.159Z,100.00
2022-11-30T05:00:39.530Z,100.00
2022-11-30T05:01:41.015Z,100.00
2022-11-30T05:02:44.491Z,100.00
2022-11-30T05:03:51.892Z,100.00
2022-11-30T05:05:00.200Z,100.00
2022-11-30T05:06:02.114Z,100.00
2022-11-30T05:07:03.564Z,100.00
2022-11-30T05:08:05.052Z,100.00
2022-11-30T05:09:06.373Z,100.00
2022-11-30T05:10:08.346Z,100.00
2022-11-30T05:11:09.724Z,100.00
2022-11-30T05:12:11.095Z,100.00
2022-11-30T05:13:12.439Z,100.00
2022-11-30T05:14:14.085Z,100.00
2022-11-30T05:15:15.847Z,100.00
2022-11-30T05:16:17.615Z,100.00
2022-11-30T05:17:20.739Z,100.00
2022-11-30T05:18:22.274Z,100.00
2022-11-30T05:19:23.701Z,100.00
2022-11-30T05:20:25.099Z,100.00
2022-11-30T05:21:26.512Z,100.00
2022-11-30T05:22:27.827Z,100.00
2022-11-30T05:23:29.126Z,100.00
2022-11-30T05:24:30.450Z,100.00
2022-11-30T05:25:31.823Z,100.00
2022-11-30T05:26:33.236Z,100.00
2022-11-30T05:27:34.714Z,100.00
2022-11-30T05:28:36.262Z,100.00
2022-11-30T05:29:37.582Z,100.00
2022-11-30T05:30:39.657Z,100.00
2022-11-30T05:31:41.067Z,100.00
2022-11-30T05:32:42.454Z,100.00
2022-11-30T05:33:43.771Z,100.00
2022-11-30T05:34:51.235Z,100.00
2022-11-30T05:35:53.267Z,100.00
2022-11-30T05:36:54.630Z,100.00
2022-11-30T05:37:55.968Z,100.00
2022-11-30T05:38:57.274Z,100.00
2022-11-30T05:39:58.635Z,100.00
2022-11-30T05:41:00.596Z,100.00
2022-11-30T05:42:01.923Z,100.00
2022-11-30T05:43:04.119Z,100.00
2022-11-30T05:44:05.488Z,100.00
2022-11-30T05:45:07.026Z,100.00
2022-11-30T05:46:09.690Z,100.00
2022-11-30T05:47:11.223Z,100.00
2022-11-30T05:48:12.643Z,100.00
2022-11-30T05:49:13.978Z,100.00
2022-11-30T05:50:15.775Z,100.00
2022-11-30T05:51:18.230Z,100.00
2022-11-30T05:52:19.611Z,100.00
2022-11-30T05:53:20.980Z,100.00
2022-11-30T05:54:22.278Z,100.00
2022-11-30T05:55:27.211Z,100.00
2022-11-30T05:56:28.526Z,100.00
2022-11-30T05:57:29.870Z,100.00
2022-11-30T05:58:31.418Z,100.00
2022-11-30T05:59:32.722Z,100.00
2022-11-30T06:00:34.117Z,100.00
2022-11-30T06:01:35.552Z,100.00
2022-11-30T06:02:37.036Z,100.00
2022-11-30T06:03:38.485Z,100.00
2022-11-30T06:04:39.866Z,100.00
2022-11-30T06:05:41.283Z,100.00
2022-11-30T06:06:42.636Z,100.00
2022-11-30T06:07:44.098Z,100.00
2022-11-30T06:08:46.121Z,100.00
2022-11-30T06:09:47.483Z,100.00
2022-11-30T06:10:48.791Z,100.00
2022-11-30T06:11:50.511Z,100.00
2022-11-30T06:12:51.885Z,100.00
2022-11-30T06:13:53.248Z,100.00
2022-11-30T06:14:54.631Z,100.00
2022-11-30T06:15:58.285Z,100.00
2022-11-30T06:16:59.646Z,100.00
2022-11-30T06:18:01.027Z,100.00
2022-11-30T06:19:02.357Z,100.00
2022-11-30T06:20:07.253Z,100.00
2022-11-30T06:21:10.946Z,100.00
2022-11-30T06:22:12.285Z,100.00
2022-11-30T06:23:13.692Z,100.00
2022-11-30T06:24:17.084Z,100.00
2022-11-30T06:25:18.496Z,100.00
2022-11-30T06:26:19.833Z,100.00
2022-11-30T06:27:21.241Z,100.00
2022-11-30T06:28:24.006Z,100.00
2022-11-30T06:29:25.505Z,100.00
2022-11-30T06:30:26.896Z,100.00
2022-11-30T06:31:28.354Z,100.00
2022-11-30T06:32:30.000Z,100.00
2022-11-30T06:33:31.840Z,100.00
2022-11-30T06:34:33.295Z,100.00
2022-11-30T06:35:34.716Z,100.00
2022-11-30T06:36:36.535Z,100.00
2022-11-30T06:37:38.006Z,100.00
2022-11-30T06:38:39.376Z,100.00
2022-11-30T06:40:05.579Z,100.00
2022-11-30T06:41:05.511Z,100.00
2022-11-30T06:42:06.815Z,100.00
2022-11-30T06:43:08.216Z,100.00
2022-11-30T06:44:10.125Z,100.00
2022-11-30T06:45:12.077Z,100.00
2022-11-30T06:46:13.501Z,100.00
2022-11-30T06:47:14.904Z,100.00
2022-11-30T06:48:16.255Z,100.00
2022-11-30T06:49:17.610Z,100.00
2022-11-30T06:50:18.955Z,100.00
2022-11-30T06:51:20.377Z,100.00
2022-11-30T06:52:21.784Z,100.00
2022-11-30T06:53:23.194Z,100.00
2022-11-30T06:54:24.572Z,100.00
2022-11-30T06:55:26.038Z,100.00
2022-11-30T06:56:29.708Z,100.00
2022-11-30T06:57:31.072Z,100.00
2022-11-30T06:58:32.633Z,100.00
2022-11-30T06:59:34.035Z,100.00
2022-11-30T07:00:35.948Z,100.00
2022-11-30T07:01:37.291Z,100.00
2022-11-30T07:02:38.816Z,100.00
2022-11-30T07:03:43.442Z,100.00
2022-11-30T07:04:45.263Z,100.00
2022-11-30T07:05:46.808Z,100.00
2022-11-30T07:06:48.114Z,100.00
2022-11-30T07:07:49.576Z,100.00
2022-11-30T07:08:50.980Z,100.00
2022-11-30T07:09:52.313Z,100.00
2022-11-30T07:10:53.686Z,100.00
2022-11-30T07:11:55.036Z,100.00
2022-11-30T07:12:56.375Z,100.00
2022-11-30T07:13:57.682Z,100.00
2022-11-30T07:14:59.048Z,100.00
2022-11-30T07:16:03.211Z,100.00
2022-11-30T07:17:04.646Z,100.00
2022-11-30T07:18:06.273Z,100.00
2022-11-30T07:19:07.607Z,100.00
2022-11-30T07:20:09.096Z,100.00
2022-11-30T07:21:10.552Z,100.00
2022-11-30T07:22:11.865Z,100.00
2022-11-30T07:23:13.232Z,100.00
2022-11-30T07:24:14.810Z,100.00
2022-11-30T07:25:16.156Z,100.00
2022-11-30T07:26:17.562Z,100.00
2022-11-30T07:27:18.918Z,100.00
2022-11-30T07:28:20.235Z,100.00
2022-11-30T07:29:21.651Z,100.00
2022-11-30T07:30:23.006Z,100.00
2022-11-30T07:31:28.659Z,100.00
2022-11-30T07:32:30.051Z,100.00
2022-11-30T07:33:31.447Z,100.00
2022-11-30T07:34:32.803Z,100.00
2022-11-30T07:35:34.100Z,100.00
2022-11-30T07:36:36.146Z,100.00
2022-11-30T07:37:37.520Z,100.00
2022-11-30T07:38:39.300Z,100.00
2022-11-30T07:39:40.660Z,100.00
2022-11-30T07:40:42.014Z,100.00
2022-11-30T07:41:43.331Z,100.00
2022-11-30T07:42:44.676Z,100.00
2022-11-30T07:43:45.983Z,100.00
2022-11-30T07:44:55.260Z,100.00
2022-11-30T07:46:03.065Z,100.00
2022-11-30T07:47:04.421Z,100.00
2022-11-30T07:48:05.903Z,100.00
2022-11-30T07:49:08.691Z,100.00
2022-11-30T07:50:10.229Z,100.00
2022-11-30T07:51:21.782Z,100.00
2022-11-30T07:52:23.212Z,100.00
2022-11-30T07:53:24.547Z,100.00
2022-11-30T07:54:25.934Z,100.00
2022-11-30T07:55:27.257Z,100.00
2022-11-30T07:56:29.262Z,100.00
2022-11-30T07:57:30.599Z,100.00
2022-11-30T07:58:32.149Z,100.00
2022-11-30T07:59:33.517Z,100.00
2022-11-30T08:00:34.886Z,100.00
2022-11-30T08:01:36.352Z,100.00
2022-11-30T08:02:37.722Z,100.00
2022-11-30T08:03:39.124Z,100.00
2022-11-30T08:04:40.546Z,100.00
2022-11-30T08:05:41.893Z,100.00
2022-11-30T08:06:43.233Z,100.00
2022-11-30T08:07:44.583Z,100.00
2022-11-30T08:08:46.516Z,100.00
2022-11-30T08:09:47.811Z,100.00
2022-11-30T08:10:49.161Z,100.00
2022-11-30T08:11:50.506Z,100.00
2022-11-30T08:12:51.830Z,100.00
2022-11-30T08:13:53.383Z,100.00
2022-11-30T08:15:19.209Z,100.00
2022-11-30T08:16:17.678Z,100.00
2022-11-30T08:17:19.074Z,100.00
2022-11-30T08:18:20.793Z,100.00
2022-11-30T08:19:22.118Z,100.00
2022-11-30T08:20:23.488Z,100.00
2022-11-30T08:21:24.874Z,100.00
2022-11-30T08:22:26.203Z,100.00
2022-11-30T08:23:28.617Z,100.00
2022-11-30T08:24:29.951Z,100.00
2022-11-30T08:25:31.346Z,100.00
2022-11-30T08:26:33.442Z,100.00
2022-11-30T08:27:34.849Z,100.00
2022-11-30T08:28:36.498Z,100.00
2022-11-30T08:29:37.821Z,100.00
2022-11-30T08:30:39.249Z,100.00
2022-11-30T08:31:40.655Z,100.00
2022-11-30T08:32:41.986Z,100.00
2022-11-30T08:33:43.636Z,100.00
2022-11-30T08:34:45.188Z,100.00
2022-11-30T08:35:46.692Z,100.00
2022-11-30T08:36:51.777Z,100.00
2022-11-30T08:37:53.410Z,100.00
2022-11-30T08:38:56.905Z,100.00
2022-11-30T08:39:58.217Z,100.00
2022-11-30T08:40:59.507Z,100.00
2022-11-30T08:42:01.263Z,100.00
2022-11-30T08:43:02.609Z,100.00
2022-11-30T08:44:04.059Z,100.00
2022-11-30T08:45:05.684Z,100.00
2022-11-30T08:46:42.571Z,100.00
2022-11-30T08:47:33.551Z,100.00
2022-11-30T08:48:35.069Z,100.00
2022-11-30T08:49:36.403Z,100.00
2022-11-30T08:50:37.784Z,100.00
2022-11-30T08:52:14.709Z,100.00
2022-11-30T08:53:06.138Z,100.00
2022-11-30T08:54:07.791Z,100.00
2022-11-30T08:55:09.255Z,100.00
2022-11-30T08:56:11.782Z,100.00
2022-11-30T08:57:13.583Z,100.00
2022-11-30T08:58:14.890Z,100.00
2022-11-30T08:59:16.200Z,100.00
2022-11-30T09:00:17.657Z,100.00
2022-11-30T09:01:20.551Z,100.00
2022-11-30T09:02:21.983Z,100.00
2022-11-30T09:03:23.363Z,100.00
2022-11-30T09:04:24.746Z,100.00
2022-11-30T09:05:26.094Z,100.00
2022-11-30T09:06:28.745Z,100.00
2022-11-30T09:07:30.209Z,100.00
2022-11-30T09:08:31.582Z,100.00
2022-11-30T09:09:32.907Z,100.00
2022-11-30T09:10:34.274Z,100.00
2022-11-30T09:11:35.657Z,100.00
2022-11-30T09:12:38.138Z,100.00
2022-11-30T09:13:40.006Z,100.00
2022-11-30T09:14:41.384Z,100.00
2022-11-30T09:15:42.856Z,100.00
2022-11-30T09:16:46.364Z,100.00
2022-11-30T09:17:47.776Z,100.00
2022-11-30T09:18:49.376Z,100.00
2022-11-30T09:19:50.825Z,100.00
2022-11-30T09:20:52.144Z,100.00
2022-11-30T09:21:53.442Z,100.00
2022-11-30T09:22:54.773Z,100.00
2022-11-30T09:23:56.102Z,100.00
2022-11-30T09:24:57.423Z,100.00
2022-11-30T09:25:59.596Z,100.00
2022-11-30T09:27:00.923Z,100.00
2022-11-30T09:28:02.325Z,100.00
2022-11-30T09:29:04.114Z,100.00
2022-11-30T09:30:05.813Z,100.00
2022-11-30T09:31:08.813Z,100.00
2022-11-30T09:32:10.192Z,100.00
2022-11-30T09:33:11.494Z,100.00
2022-11-30T09:34:12.864Z,100.00
2022-11-30T09:35:14.227Z,100.00
2022-11-30T09:36:19.825Z,100.00
2022-11-30T09:37:21.203Z,100.00
2022-11-30T09:38:22.591Z,100.00
2022-11-30T09:39:23.908Z,100.00
2022-11-30T09:40:32.362Z,100.00
2022-11-30T09:41:53.715Z,100.00
2022-11-30T09:43:21.381Z,100.00
2022-11-30T09:44:30.950Z,100.00
2022-11-30T09:45:33.682Z,100.00
2022-11-30T09:46:47.025Z,100.00
2022-11-30T09:48:09.077Z,100.00
2022-11-30T09:49:16.095Z,100.00
2022-11-30T09:50:21.354Z,100.00
2022-11-30T09:51:27.726Z,100.00
2022-11-30T09:52:37.111Z,100.00
2022-11-30T09:53:41.393Z,100.00
2022-11-30T09:54:43.815Z,100.00
2022-11-30T09:55:45.174Z,100.00
2022-11-30T09:56:46.718Z,100.00
2022-11-30T09:57:47.979Z,100.00
2022-11-30T09:59:12.272Z,100.00
2022-11-30T10:00:16.920Z,100.00
2022-11-30T10:01:19.423Z,100.00
2022-11-30T10:02:22.043Z,100.00
2022-11-30T10:03:23.703Z,100.00
2022-11-30T10:04:27.596Z,100.00
2022-11-30T10:05:40.731Z,100.00
2022-11-30T10:06:56.111Z,100.00
2022-11-30T10:07:57.528Z,100.00
2022-11-30T10:08:58.973Z,100.00
2022-11-30T10:10:32.256Z,100.00
2022-11-30T10:11:43.179Z,100.00
2022-11-30T10:12:46.906Z,100.00
2022-11-30T10:13:55.084Z,100.00
2022-11-30T10:15:00.098Z,100.00
2022-11-30T10:16:14.387Z,100.00
2022-11-30T10:17:16.859Z,100.00
2022-11-30T10:18:34.492Z,100.00
2022-11-30T10:19:48.087Z,100.00
2022-11-30T10:20:49.440Z,100.00
2022-11-30T10:21:59.857Z,100.00
2022-11-30T10:23:15.434Z,100.00
2022-11-30T10:24:35.453Z,100.00
2022-11-30T10:25:55.934Z,100.00
2022-11-30T10:26:58.033Z,100.00
2022-11-30T10:28:24.310Z,100.00
2022-11-30T10:29:35.699Z,100.00
2022-11-30T10:30:37.000Z,100.00
2022-11-30T10:31:39.742Z,100.00
2022-11-30T10:32:42.831Z,100.00
2022-11-30T10:33:51.253Z,100.00
2022-11-30T10:34:54.366Z,100.00
2022-11-30T10:36:02.753Z,100.00
2022-11-30T10:37:10.484Z,100.00
2022-11-30T10:38:15.831Z,100.00
2022-11-30T10:39:19.991Z,100.00
2022-11-30T10:40:32.927Z,100.00
2022-11-30T10:41:39.300Z,100.00
2022-11-30T10:42:42.727Z,100.00
2022-11-30T10:43:47.004Z,100.00
2022-11-30T10:45:11.650Z,100.00
2022-11-30T10:46:26.154Z,100.00
2022-11-30T10:47:29.858Z,100.00
2022-11-30T10:48:37.440Z,100.00
2022-11-30T10:49:41.428Z,100.00
2022-11-30T10:50:42.771Z,100.00
2022-11-30T10:51:47.070Z,100.00
2022-11-30T10:52:51.167Z,100.00
2022-11-30T10:53:52.731Z,100.00
2022-11-30T10:55:02.207Z,100.00
2022-11-30T10:56:15.315Z,100.00
2022-11-30T10:57:16.674Z,100.00
2022-11-30T10:58:29.797Z,100.00
2022-11-30T10:59:38.782Z,100.00
2022-11-30T11:00:40.142Z,100.00
2022-11-30T11:01:41.571Z,100.00
2022-11-30T11:02:44.890Z,100.00
2022-11-30T11:03:46.413Z,100.00
2022-11-30T11:04:47.826Z,100.00
2022-11-30T11:06:02.135Z,100.00
2022-11-30T11:07:10.241Z,100.00
2022-11-30T11:08:19.396Z,100.00
2022-11-30T11:09:26.399Z,100.00
2022-11-30T11:10:27.740Z,100.00
2022-11-30T11:11:31.556Z,100.00
2022-11-30T11:12:32.903Z,100.00
2022-11-30T11:13:41.865Z,100.00
2022-11-30T11:14:43.250Z,100.00
2022-11-30T11:15:56.412Z,100.00
2022-11-30T11:17:02.346Z,100.00
2022-11-30T11:18:15.896Z,100.00
2022-11-30T11:19:23.425Z,100.00
2022-11-30T11:20:29.623Z,100.00
2022-11-30T11:21:30.979Z,100.00
2022-11-30T11:22:32.290Z,100.00
2022-11-30T11:23:36.097Z,100.00
2022-11-30T11:24:37.447Z,100.00
2022-11-30T11:25:38.837Z,100.00
2022-11-30T11:26:48.328Z,100.00
2022-11-30T11:27:54.031Z,100.00
2022-11-30T11:28:57.030Z,100.00
2022-11-30T11:30:04.469Z,100.00
2022-11-30T11:31:15.843Z,100.00
2022-11-30T11:32:23.816Z,100.00
2022-11-30T11:33:29.190Z,100.00
2022-11-30T11:34:34.740Z,100.00
2022-11-30T11:35:36.163Z,100.00
2022-11-30T11:36:37.476Z,100.00
2022-11-30T11:37:38.793Z,100.00
2022-11-30T11:38:47.164Z,100.00
2022-11-30T11:40:05.616Z,100.00
2022-11-30T11:41:11.286Z,100.00
2022-11-30T11:42:22.087Z,100.00
2022-11-30T11:43:25.404Z,100.00
2022-11-30T11:44:27.140Z,100.00
2022-11-30T11:45:30.412Z,100.00
2022-11-30T11:46:32.986Z,100.00
2022-11-30T11:47:34.346Z,100.00
2022-11-30T11:48:37.931Z,100.00
2022-11-30T11:49:39.329Z,100.00
2022-11-30T11:52:04.482Z,100.00
2022-11-30T11:53:13.784Z,100.00
2022-11-30T11:54:15.116Z,100.00
2022-11-30T11:55:18.026Z,100.00
2022-11-30T11:56:29.678Z,100.00
2022-11-30T11:57:53.128Z,100.00
2022-11-30T11:59:09.430Z,100.00
2022-11-30T12:00:16.812Z,100.00
2022-11-30T12:01:39.754Z,100.00
2022-11-30T12:02:49.382Z,100.00
2022-11-30T12:04:00.575Z,100.00
2022-11-30T12:05:16.724Z,100.00
2022-11-30T12:06:19.291Z,100.00
2022-11-30T12:07:29.559Z,100.00
2022-11-30T12:08:41.640Z,100.00
2022-11-30T12:09:48.656Z,100.00
2022-11-30T12:10:57.002Z,100.00
2022-11-30T12:11:58.357Z,100.00
2022-11-30T12:12:59.880Z,100.00
2022-11-30T12:14:02.696Z,100.00
2022-11-30T12:15:08.454Z,100.00
2022-11-30T12:16:12.963Z,100.00
2022-11-30T12:17:34.835Z,100.00
2022-11-30T12:18:38.956Z,97.76
2022-11-30T12:19:53.425Z,98.15
2022-11-30T12:20:54.786Z,99.08
2022-11-30T12:22:14.606Z,98.48
2022-11-30T12:23:25.036Z,98.75
2022-11-30T12:24:47.592Z,100.00
2022-11-30T12:26:00.311Z,100.00
2022-11-30T12:27:16.509Z,100.00
2022-11-30T12:28:43.778Z,100.00
2022-11-30T12:29:55.619Z,100.00
2022-11-30T12:31:16.106Z,100.00
2022-11-30T12:32:23.663Z,100.00
2022-11-30T12:33:33.754Z,98.08
2022-11-30T12:34:53.708Z,98.41
2022-11-30T12:36:03.910Z,99.20
2022-11-30T12:37:18.698Z,99.80
2022-11-30T12:38:31.713Z,100.00
2022-11-30T12:39:41.955Z,100.00
2022-11-30T12:41:04.400Z,98.86
2022-11-30T12:42:24.050Z,98.49
2022-11-30T12:43:28.510Z,98.66
2022-11-30T12:44:42.307Z,99.45
2022-11-30T12:45:44.547Z,99.26
2022-11-30T12:46:45.951Z,99.62
2022-11-30T12:47:54.010Z,99.85
2022-11-30T12:49:14.301Z,100.00
2022-11-30T12:50:18.823Z,100.00
2022-11-30T12:51:22.791Z,100.00
2022-11-30T12:52:29.350Z,100.00
2022-11-30T12:53:45.944Z,99.58
2022-11-30T12:55:00.712Z,99.17
2022-11-30T12:56:21.074Z,99.32
2022-11-30T12:57:36.442Z,98.65
2022-11-30T12:58:56.590Z,98.73
2022-11-30T13:00:03.462Z,99.44
2022-11-30T13:01:13.774Z,99.96
2022-11-30T13:02:21.144Z,99.87
2022-11-30T13:03:28.366Z,100.00
2022-11-30T13:04:41.887Z,99.21
2022-11-30T13:05:46.550Z,100.00
2022-11-30T13:06:53.900Z,100.00
2022-11-30T13:08:02.296Z,100.00
2022-11-30T13:09:09.700Z,100.00
2022-11-30T13:10:26.375Z,100.00
2022-11-30T13:11:48.985Z,100.00
2022-11-30T13:12:51.468Z,100.00
2022-11-30T13:13:54.705Z,100.00
2022-11-30T13:14:59.359Z,100.00
2022-11-30T13:16:03.095Z,100.00
2022-11-30T13:17:06.170Z,100.00
2022-11-30T13:18:09.540Z,100.00
2022-11-30T13:19:20.355Z,100.00
2022-11-30T13:20:21.658Z,100.00
2022-11-30T13:21:27.718Z,100.00